Stations météo

réclame
Mon MeteoGroup
La Roda de Andalucia, Espagne (8399): Température de l'air & dewpoint: 16.10.2018 16:00:00 - 22.10.2018 16:00:00 (CEST)La Roda de Andalucia, Espagne (8399): Vitesse du vent & gusts: 16.10.2018 16:00:00 - 22.10.2018 16:00:00 (CEST)La Roda de Andalucia, Espagne (8399): Direction du vent: 16.10.2018 16:00:00 - 22.10.2018 16:00:00 (CEST)La Roda de Andalucia, Espagne (8399): reduced air pressure: 16.10.2018 16:00:00 - 22.10.2018 16:00:00 (CEST)La Roda de Andalucia, Espagne (8399): Ensoleillement: 16.10.2018 16:00:00 - 22.10.2018 16:00:00 (CEST)La Roda de Andalucia, Espagne (8399): Quantités de précipitations: 16.10.2018 16:00:00 - 22.10.2018 16:00:00 (CEST)
Date & Time tt [°C] td [°C] ff [km/h] ff [knt] fx [km/h] fx [knt] dd ppp [hPa] sd [min] rr [mm]
22.10.2018 16:00:00 24,8 13,7 4 2 13 7 S 1017,1 57 0,0
22.10.2018 15:00:00 23,9 13,2 7 4 22 12 SW 1017,9 59 0,0
22.10.2018 14:00:00 23,0 14,3 11 6 23 12 S 1018,8 57 -
22.10.2018 13:00:00 21,9 15,3 9 5 22 12 S 1019,2 60 0,0
22.10.2018 12:00:00 20,9 15,9 6 4 16 8 S 1019,3 60 0,0
22.10.2018 11:00:00 17,0 15,7 7 4 19 10 S 1020,0 60 0,0
22.10.2018 10:00:00 14,8 13,7 8 4 13 7 S 1020,2 19 0,0
22.10.2018 09:00:00 13,1 12,0 6 4 10 5 S 1019,9 0 0,0
22.10.2018 08:00:00 13,2 12,1 3 2 8 5 SSW 1019,8 0 -
22.10.2018 07:00:00 12,6 11,4 0 0 8 5 N 1020,0 0 0,0
22.10.2018 06:00:00 13,2 12,1 5 3 10 5 SSE 1019,4 0 0,0
22.10.2018 05:00:00 12,8 11,6 6 3 10 5 S 1019,3 0 0,0
22.10.2018 04:00:00 13,1 11,8 1 1 10 5 SE 1019,4 0 0,0
22.10.2018 03:00:00 13,6 12,3 5 3 10 6 S 1019,5 0 0,0
22.10.2018 02:00:00 13,8 12,5 5 3 8 5 S 1019,8 0 -
22.10.2018 01:00:00 14,4 13,0 3 1 6 4 SSE 1019,7 0 0,0
22.10.2018 00:00:00 14,5 13,1 5 3 9 5 S 1019,4 0 0,0
21.10.2018 23:00:00 14,6 12,8 5 3 9 5 S 1018,9 0 0,0
21.10.2018 22:00:00 15,1 13,2 6 3 11 6 S 1018,2 0 0,0
21.10.2018 21:00:00 15,5 13,7 5 3 10 6 S 1018,0 0 0,0
21.10.2018 20:00:00 16,5 13,9 4 2 13 7 S 1017,6 0 -
21.10.2018 19:00:00 17,8 13,9 5 3 16 8 SSW 1017,1 18 0,0
21.10.2018 18:00:00 18,2 13,9 3 1 17 9 S 1016,6 34 0,0
21.10.2018 17:00:00 18,7 14,4 5 3 12 7 S 1016,7 35 0,0
21.10.2018 16:00:00 16,9 14,5 6 3 12 7 S 1017,8 0 0,0
21.10.2018 15:00:00 15,9 14,0 3 1 10 6 WNW 1017,7 0 0,2
21.10.2018 14:00:00 14,8 13,6 7 4 13 7 WNW 1019,1 0 -
21.10.2018 13:00:00 14,5 13,3 3 2 15 8 SSE 1019,1 0 0,2
21.10.2018 12:00:00 14,3 13,1 4 2 11 6 N 1018,9 0 0,0
21.10.2018 11:00:00 14,1 12,6 6 3 25 14 SW 1018,9 0 0,0
21.10.2018 10:00:00 14,5 12,3 13 7 31 17 N 1017,7 0 10,6
21.10.2018 09:00:00 14,5 13,4 5 3 26 14 W 1017,7 0 7,0
21.10.2018 08:00:00 14,6 13,5 5 3 17 9 ENE 1016,9 0 -
21.10.2018 07:00:00 14,6 13,4 5 3 31 17 E 1017,2 0 7,8
21.10.2018 06:00:00 14,6 13,4 6 3 19 10 W 1017,1 0 2,6
21.10.2018 05:00:00 13,9 12,6 5 3 27 14 SE 1016,9 0 9,8
21.10.2018 04:00:00 14,0 12,7 7 4 21 11 S 1017,0 0 9,2
21.10.2018 03:00:00 13,9 12,6 18 10 41 22 SE 1017,3 0 15,0
21.10.2018 02:00:00 14,5 13,3 14 8 55 30 S 1017,0 0 -
21.10.2018 01:00:00 14,5 13,4 13 7 28 15 W 1017,1 0 20,8
21.10.2018 00:00:00 14,7 13,3 6 3 27 15 NNW 1016,7 0 3,2
20.10.2018 23:00:00 14,6 13,0 6 3 27 15 WNW 1016,2 0 1,0
20.10.2018 22:00:00 14,4 13,0 14 8 29 16 W 1015,5 0 0,0
20.10.2018 21:00:00 14,4 12,7 4 2 24 13 NNW 1014,7 0 0,4
20.10.2018 20:00:00 14,7 13,0 8 4 27 15 W 1014,2 0 -
20.10.2018 19:00:00 15,1 12,4 9 5 27 14 W 1013,7 0 0,0
20.10.2018 18:00:00 17,0 13,0 13 7 27 14 W 1013,3 0 0,0
20.10.2018 17:00:00 18,3 12,3 6 3 26 14 E 1012,3 0 0,4
20.10.2018 16:00:00 20,1 11,6 12 7 34 18 ENE 1012,4 51 0,0
20.10.2018 15:00:00 19,4 10,2 16 8 30 16 ENE 1012,9 11 0,0
20.10.2018 14:00:00 18,0 12,2 11 6 24 13 ENE 1013,9 19 -
20.10.2018 13:00:00 14,6 10,8 6 3 13 7 NNE 1014,9 0 0,0
20.10.2018 12:00:00 12,8 10,2 3 1 8 4 WSW 1015,7 0 0,0
20.10.2018 11:00:00 12,0 10,4 3 2 5 3 W 1015,2 0 0,0
20.10.2018 10:00:00 10,8 9,6 1 1 4 2 NW 1015,2 0 0,0
20.10.2018 09:00:00 9,4 8,1 2 1 7 4 E 1014,8 0 0,0
20.10.2018 08:00:00 9,2 8,0 5 3 9 5 S 1014,4 0 -
20.10.2018 07:00:00 9,1 7,8 3 1 9 5 SE 1014,0 0 0,0
20.10.2018 06:00:00 9,5 8,3 7 4 10 5 S 1014,1 0 0,0
20.10.2018 05:00:00 9,7 8,5 8 4 12 6 S 1014,2 0 0,0
20.10.2018 04:00:00 9,3 7,8 3 2 8 4 SSW 1014,4 0 0,0
20.10.2018 03:00:00 10,3 8,9 5 3 11 6 S 1014,5 0 0,0
20.10.2018 02:00:00 10,0 8,7 5 3 10 5 S 1014,3 0 -
20.10.2018 01:00:00 10,3 8,9 6 3 9 5 S 1014,1 0 0,0
20.10.2018 00:00:00 10,4 8,8 5 3 9 5 S 1014,5 0 0,0
19.10.2018 23:00:00 10,7 8,8 2 1 10 5 SW 1014,4 0 0,0
19.10.2018 22:00:00 11,5 9,6 8 5 12 7 S 1013,7 0 0,0
19.10.2018 21:00:00 12,1 9,7 4 2 6 4 S 1013,6 0 0,0
19.10.2018 20:00:00 - - - - - - - - - -
19.10.2018 19:00:00 16,0 8,9 6 3 19 10 S 1011,1 18 0,0
19.10.2018 18:00:00 17,1 7,7 9 5 35 19 SSE 1010,7 18 0,0
19.10.2018 17:00:00 17,2 8,7 17 9 36 19 SE 1010,5 29 0,0
19.10.2018 16:00:00 18,0 8,8 11 6 27 15 SE 1010,2 9 0,0
19.10.2018 15:00:00 19,0 7,1 13 7 51 28 SE 1010,1 36 0,0
19.10.2018 14:00:00 20,1 7,4 12 6 30 16 E 1009,8 56 -
19.10.2018 13:00:00 18,9 7,7 8 5 18 10 ESE 1010,3 60 0,0
19.10.2018 12:00:00 16,3 9,0 5 3 11 6 SE 1010,5 60 0,0
19.10.2018 11:00:00 11,8 9,3 3 2 9 5 SSW 1011,5 60 0,0
19.10.2018 10:00:00 8,8 7,6 5 3 20 11 S 1011,6 19 0,0
19.10.2018 09:00:00 7,5 6,2 5 3 14 7 SSW 1011,2 0 0,0
19.10.2018 08:00:00 6,6 5,5 5 3 8 4 S 1011,2 0 -
19.10.2018 07:00:00 7,2 5,9 5 3 10 5 S 1011,2 0 0,0
19.10.2018 06:00:00 7,7 6,5 6 3 11 6 S 1010,5 0 0,0
19.10.2018 05:00:00 7,7 6,5 1 1 8 4 N 1010,1 0 0,0
19.10.2018 04:00:00 8,3 7,1 5 3 7 4 S 1010,8 0 0,0
19.10.2018 03:00:00 8,8 7,4 4 2 10 5 S 1010,8 0 0,0
19.10.2018 02:00:00 9,0 7,6 4 2 8 4 S 1010,5 0 -
19.10.2018 01:00:00 9,8 8,3 3 2 8 4 SSE 1010,4 0 0,0
19.10.2018 00:00:00 10,9 9,2 2 1 9 5 ENE 1010,7 0 0,0
18.10.2018 23:00:00 11,5 9,9 6 3 11 6 SSW 1010,7 0 0,0
18.10.2018 22:00:00 11,8 10,4 2 1 5 3 S 1010,1 0 0,0
18.10.2018 21:00:00 12,0 10,4 1 1 8 4 N 1009,8 0 0,0
18.10.2018 20:00:00 - - - - - - - - - -
18.10.2018 19:00:00 - - - - - - - - - -
18.10.2018 18:00:00 - - - - - - - - - -
18.10.2018 17:00:00 - - - - - - - - - -
18.10.2018 16:00:00 - - - - - - - - - -
18.10.2018 15:00:00 11,4 9,8 3 2 14 8 ENE 1007,9 0 0,0
18.10.2018 14:00:00 10,9 9,4 8 5 18 10 E 1008,5 0 -
18.10.2018 13:00:00 11,4 10,2 8 4 13 7 E 1009,3 0 6,8
18.10.2018 12:00:00 11,1 9,8 4 2 28 15 S 1009,5 0 4,0
18.10.2018 11:00:00 11,1 9,7 7 4 39 21 W 1008,7 0 11,2
18.10.2018 10:00:00 13,4 11,7 16 9 34 18 W 1007,1 0 1,2
18.10.2018 09:00:00 14,4 13,2 7 4 20 11 E 1006,8 0 5,2
18.10.2018 08:00:00 14,4 13,2 4 2 11 6 NE 1006,6 0 -
18.10.2018 07:00:00 14,7 13,3 4 2 9 5 ENE 1007,4 0 0,0
18.10.2018 06:00:00 14,9 13,3 5 3 13 7 E 1007,8 0 0,0
18.10.2018 05:00:00 15,6 14,1 4 2 5 3 NNE 1008,1 0 0,4
18.10.2018 04:00:00 15,6 13,7 0 0 7 4 N 1009,2 0 1,2
18.10.2018 03:00:00 15,9 13,6 4 2 9 5 S 1010,0 0 1,4
18.10.2018 02:00:00 15,9 13,2 2 1 6 4 S 1011,0 0 -
18.10.2018 01:00:00 16,0 13,0 2 1 19 11 S 1011,9 0 0,0
18.10.2018 00:00:00 16,8 12,5 11 6 20 11 W 1012,6 0 0,0
17.10.2018 23:00:00 16,7 12,2 10 6 19 11 W 1013,0 0 0,0
17.10.2018 22:00:00 17,0 11,4 7 4 16 9 W 1013,1 0 0,0
17.10.2018 21:00:00 17,1 11,6 8 4 12 6 SW 1013,0 0 0,0
17.10.2018 20:00:00 19,7 12,2 5 3 11 6 W 1012,2 17 -
17.10.2018 19:00:00 22,0 9,6 7 4 16 9 NNW 1011,7 46 0,0
17.10.2018 18:00:00 23,1 9,2 8 4 18 10 N 1012,0 56 0,0
17.10.2018 17:00:00 24,1 9,3 6 3 14 8 N 1012,1 60 0,0
17.10.2018 16:00:00 23,9 8,3 5 3 16 9 ENE 1012,6 60 0,0
17.10.2018 15:00:00 23,1 9,8 5 3 12 7 NNE 1013,6 60 0,0
17.10.2018 14:00:00 22,4 11,4 3 2 10 6 NNE 1014,6 60 -
17.10.2018 13:00:00 21,9 12,2 4 2 9 5 E 1015,4 60 0,0
17.10.2018 12:00:00 19,7 12,4 2 1 10 5 ESE 1016,0 60 0,0
17.10.2018 11:00:00 17,1 13,5 5 3 14 7 S 1016,6 60 0,0
17.10.2018 10:00:00 14,1 13,0 6 3 11 6 S 1017,0 17 0,0
17.10.2018 09:00:00 11,2 9,9 5 3 9 5 SSW 1017,4 0 0,0
17.10.2018 08:00:00 11,3 10,0 2 1 13 7 SW 1017,0 0 -
17.10.2018 07:00:00 11,5 10,3 5 3 10 6 S 1016,9 0 0,0
17.10.2018 06:00:00 11,2 9,9 6 3 8 4 S 1016,6 0 0,0
17.10.2018 05:00:00 11,2 9,8 3 2 8 5 S 1016,7 0 0,0
17.10.2018 04:00:00 11,8 10,4 3 2 10 5 SSW 1016,7 0 0,0
17.10.2018 03:00:00 12,3 10,9 6 3 9 5 S 1016,8 0 0,0
17.10.2018 02:00:00 12,3 10,8 3 2 6 4 SSW 1016,8 0 -
17.10.2018 01:00:00 13,2 11,6 5 3 11 6 S 1016,6 0 0,0
17.10.2018 00:00:00 13,7 11,9 7 4 12 7 S 1016,7 0 0,0
16.10.2018 23:00:00 13,9 12,1 6 3 10 5 S 1016,3 0 0,0
16.10.2018 22:00:00 14,1 12,0 6 3 8 4 S 1016,0 0 0,0
16.10.2018 21:00:00 15,3 12,6 4 2 7 4 S 1015,3 0 0,0
16.10.2018 20:00:00 17,6 12,3 2 1 10 5 N 1014,3 28 -
16.10.2018 19:00:00 18,9 11,0 5 3 11 6 N 1013,5 60 0,0
16.10.2018 18:00:00 19,7 11,4 6 3 21 11 N 1013,1 55 0,0
16.10.2018 17:00:00 19,6 11,3 10 5 20 11 NNE 1012,9 57 0,0
16.10.2018 16:00:00 19,5 12,5 8 4 19 10 N 1012,6 47 0,0

tt = Température de l'air
td = dewpoint
ff = Vitesse du vent
fx = gusts
dd = Direction du vent
ppp = reduced air pressure
sd = Ensoleillement
rr = Quantités de précipitations

stations d'obs. à proximité